sensor_id;sensor_type;location;lat;lon;timestamp;temperature;humidity
35962;DHT22;22044;48.298;10.008;2023-04-16T00:02:24;6.10;99.90
35962;DHT22;22044;48.298;10.008;2023-04-16T00:05:10;5.90;99.90
35962;DHT22;22044;48.298;10.008;2023-04-16T00:07:56;5.90;99.90
35962;DHT22;22044;48.298;10.008;2023-04-16T00:10:42;5.90;99.90
35962;DHT22;22044;48.298;10.008;2023-04-16T00:13:29;6.00;99.90
35962;DHT22;22044;48.298;10.008;2023-04-16T00:16:14;6.00;99.90
35962;DHT22;22044;48.298;10.008;2023-04-16T00:19:00;6.10;99.90
35962;DHT22;22044;48.298;10.008;2023-04-16T00:21:45;6.10;99.90
35962;DHT22;22044;48.298;10.008;2023-04-16T00:24:31;6.10;99.90
35962;DHT22;22044;48.298;10.008;2023-04-16T00:27:17;6.10;99.90
35962;DHT22;22044;48.298;10.008;2023-04-16T00:30:06;6.10;99.90
35962;DHT22;22044;48.298;10.008;2023-04-16T00:32:51;6.00;99.90
35962;DHT22;22044;48.298;10.008;2023-04-16T00:35:37;5.90;99.90
35962;DHT22;22044;48.298;10.008;2023-04-16T00:38:23;6.00;99.90
35962;DHT22;22044;48.298;10.008;2023-04-16T00:41:08;6.00;99.90
35962;DHT22;22044;48.298;10.008;2023-04-16T00:43:54;6.10;99.90
35962;DHT22;22044;48.298;10.008;2023-04-16T00:46:41;6.10;99.90
35962;DHT22;22044;48.298;10.008;2023-04-16T00:49:27;6.10;99.90
35962;DHT22;22044;48.298;10.008;2023-04-16T00:52:14;6.10;99.90
35962;DHT22;22044;48.298;10.008;2023-04-16T00:55:00;6.10;99.90
35962;DHT22;22044;48.298;10.008;2023-04-16T00:57:46;6.20;99.90
35962;DHT22;22044;48.298;10.008;2023-04-16T01:00:31;6.20;99.90
35962;DHT22;22044;48.298;10.008;2023-04-16T01:03:18;6.10;99.90
35962;DHT22;22044;48.298;10.008;2023-04-16T01:06:06;6.10;99.90
35962;DHT22;22044;48.298;10.008;2023-04-16T01:08:52;6.10;99.90
35962;DHT22;22044;48.298;10.008;2023-04-16T01:11:37;6.10;99.90
35962;DHT22;22044;48.298;10.008;2023-04-16T01:14:22;6.10;99.90
35962;DHT22;22044;48.298;10.008;2023-04-16T01:17:09;6.10;99.90
35962;DHT22;22044;48.298;10.008;2023-04-16T01:19:58;6.10;99.90
35962;DHT22;22044;48.298;10.008;2023-04-16T01:22:45;6.10;99.90
35962;DHT22;22044;48.298;10.008;2023-04-16T01:25:31;6.10;99.90
35962;DHT22;22044;48.298;10.008;2023-04-16T01:28:16;6.00;99.90
35962;DHT22;22044;48.298;10.008;2023-04-16T01:31:02;6.10;99.90
35962;DHT22;22044;48.298;10.008;2023-04-16T01:34:20;6.10;99.90
35962;DHT22;22044;48.298;10.008;2023-04-16T01:37:07;6.10;99.90
35962;DHT22;22044;48.298;10.008;2023-04-16T01:39:54;6.20;99.90
35962;DHT22;22044;48.298;10.008;2023-04-16T01:42:39;6.20;99.90
35962;DHT22;22044;48.298;10.008;2023-04-16T01:45:25;6.20;99.90
35962;DHT22;22044;48.298;10.008;2023-04-16T01:48:11;6.20;99.90
35962;DHT22;22044;48.298;10.008;2023-04-16T01:50:57;6.20;99.90
35962;DHT22;22044;48.298;10.008;2023-04-16T01:53:44;6.10;99.90
35962;DHT22;22044;48.298;10.008;2023-04-16T01:56:31;6.10;99.90
35962;DHT22;22044;48.298;10.008;2023-04-16T01:59:16;6.10;99.90
35962;DHT22;22044;48.298;10.008;2023-04-16T02:02:07;6.20;99.90
35962;DHT22;22044;48.298;10.008;2023-04-16T02:04:54;6.20;99.90
35962;DHT22;22044;48.298;10.008;2023-04-16T02:07:40;6.20;99.90
35962;DHT22;22044;48.298;10.008;2023-04-16T02:10:26;6.30;99.90
35962;DHT22;22044;48.298;10.008;2023-04-16T02:13:14;6.30;99.90
35962;DHT22;22044;48.298;10.008;2023-04-16T02:16:03;6.10;99.90
35962;DHT22;22044;48.298;10.008;2023-04-16T02:19:00;6.20;99.90
35962;DHT22;22044;48.298;10.008;2023-04-16T02:21:52;6.20;99.90
35962;DHT22;22044;48.298;10.008;2023-04-16T02:24:38;6.20;99.90
35962;DHT22;22044;48.298;10.008;2023-04-16T02:27:26;6.00;99.90
35962;DHT22;22044;48.298;10.008;2023-04-16T02:30:19;5.90;99.90
35962;DHT22;22044;48.298;10.008;2023-04-16T02:33:06;5.90;99.90
35962;DHT22;22044;48.298;10.008;2023-04-16T02:35:54;6.00;99.90
35962;DHT22;22044;48.298;10.008;2023-04-16T02:38:39;6.00;99.90
35962;DHT22;22044;48.298;10.008;2023-04-16T02:41:25;6.10;99.90
35962;DHT22;22044;48.298;10.008;2023-04-16T02:44:10;6.00;99.90
35962;DHT22;22044;48.298;10.008;2023-04-16T02:46:57;5.90;99.90
35962;DHT22;22044;48.298;10.008;2023-04-16T02:49:43;6.00;99.90
35962;DHT22;22044;48.298;10.008;2023-04-16T02:52:28;6.00;99.90
35962;DHT22;22044;48.298;10.008;2023-04-16T02:55:16;5.80;99.90
35962;DHT22;22044;48.298;10.008;2023-04-16T02:58:01;5.90;99.90
35962;DHT22;22044;48.298;10.008;2023-04-16T03:00:47;6.00;99.90
35962;DHT22;22044;48.298;10.008;2023-04-16T03:03:34;6.10;99.90
35962;DHT22;22044;48.298;10.008;2023-04-16T03:06:20;5.90;99.90
35962;DHT22;22044;48.298;10.008;2023-04-16T03:09:05;5.90;99.90
35962;DHT22;22044;48.298;10.008;2023-04-16T03:11:51;5.90;99.90
35962;DHT22;22044;48.298;10.008;2023-04-16T03:14:37;6.00;99.90
35962;DHT22;22044;48.298;10.008;2023-04-16T03:17:22;6.00;99.90
35962;DHT22;22044;48.298;10.008;2023-04-16T03:20:10;6.10;99.90
35962;DHT22;22044;48.298;10.008;2023-04-16T03:22:56;6.10;99.90
35962;DHT22;22044;48.298;10.008;2023-04-16T03:25:41;6.10;99.90
35962;DHT22;22044;48.298;10.008;2023-04-16T03:28:30;6.20;99.90
35962;DHT22;22044;48.298;10.008;2023-04-16T03:31:15;6.20;99.90
35962;DHT22;22044;48.298;10.008;2023-04-16T03:34:01;6.20;99.90
35962;DHT22;22044;48.298;10.008;2023-04-16T03:36:50;6.10;99.90
35962;DHT22;22044;48.298;10.008;2023-04-16T03:39:35;6.10;99.90
35962;DHT22;22044;48.298;10.008;2023-04-16T03:42:21;6.10;99.90
35962;DHT22;22044;48.298;10.008;2023-04-16T03:45:07;6.10;99.90
35962;DHT22;22044;48.298;10.008;2023-04-16T03:47:53;6.20;99.90
35962;DHT22;22044;48.298;10.008;2023-04-16T03:50:44;6.20;99.90
35962;DHT22;22044;48.298;10.008;2023-04-16T03:53:32;6.20;99.90
35962;DHT22;22044;48.298;10.008;2023-04-16T03:56:18;6.20;99.90
35962;DHT22;22044;48.298;10.008;2023-04-16T03:59:03;6.30;99.90
35962;DHT22;22044;48.298;10.008;2023-04-16T04:01:50;6.30;99.90
35962;DHT22;22044;48.298;10.008;2023-04-16T04:04:36;6.30;99.90
35962;DHT22;22044;48.298;10.008;2023-04-16T04:07:21;6.30;99.90
35962;DHT22;22044;48.298;10.008;2023-04-16T04:10:09;6.30;99.90
35962;DHT22;22044;48.298;10.008;2023-04-16T04:12:58;6.30;99.90
35962;DHT22;22044;48.298;10.008;2023-04-16T04:15:44;6.30;99.90
35962;DHT22;22044;48.298;10.008;2023-04-16T04:18:30;6.30;99.90
35962;DHT22;22044;48.298;10.008;2023-04-16T04:21:17;6.30;99.90
35962;DHT22;22044;48.298;10.008;2023-04-16T04:24:03;6.30;99.90
35962;DHT22;22044;48.298;10.008;2023-04-16T04:26:52;6.30;99.90
35962;DHT22;22044;48.298;10.008;2023-04-16T04:29:37;6.30;99.90
35962;DHT22;22044;48.298;10.008;2023-04-16T04:32:23;6.30;99.90
35962;DHT22;22044;48.298;10.008;2023-04-16T04:35:09;6.30;99.90
35962;DHT22;22044;48.298;10.008;2023-04-16T04:37:54;6.30;99.90
35962;DHT22;22044;48.298;10.008;2023-04-16T04:40:40;6.30;99.90
35962;DHT22;22044;48.298;10.008;2023-04-16T04:43:28;6.40;99.90
35962;DHT22;22044;48.298;10.008;2023-04-16T04:46:13;6.40;99.90
35962;DHT22;22044;48.298;10.008;2023-04-16T04:48:59;6.40;99.90
35962;DHT22;22044;48.298;10.008;2023-04-16T04:51:45;6.40;99.90
35962;DHT22;22044;48.298;10.008;2023-04-16T04:54:31;6.50;99.90
35962;DHT22;22044;48.298;10.008;2023-04-16T04:57:17;6.50;99.90
35962;DHT22;22044;48.298;10.008;2023-04-16T05:00:05;6.40;99.90
35962;DHT22;22044;48.298;10.008;2023-04-16T05:03:01;6.40;99.90
35962;DHT22;22044;48.298;10.008;2023-04-16T05:05:46;6.40;99.90
35962;DHT22;22044;48.298;10.008;2023-04-16T05:08:32;6.40;99.90
35962;DHT22;22044;48.298;10.008;2023-04-16T05:11:17;6.40;99.90
35962;DHT22;22044;48.298;10.008;2023-04-16T05:14:03;6.40;99.90
35962;DHT22;22044;48.298;10.008;2023-04-16T05:16:50;6.50;99.90
35962;DHT22;22044;48.298;10.008;2023-04-16T05:19:35;6.50;99.90
35962;DHT22;22044;48.298;10.008;2023-04-16T05:22:21;6.50;99.90
35962;DHT22;22044;48.298;10.008;2023-04-16T05:25:07;6.50;99.90
35962;DHT22;22044;48.298;10.008;2023-04-16T05:27:53;6.50;99.90
35962;DHT22;22044;48.298;10.008;2023-04-16T05:30:38;6.50;99.90
35962;DHT22;22044;48.298;10.008;2023-04-16T05:33:25;6.50;99.90
35962;DHT22;22044;48.298;10.008;2023-04-16T05:36:11;6.50;99.90
35962;DHT22;22044;48.298;10.008;2023-04-16T05:38:56;6.50;99.90
35962;DHT22;22044;48.298;10.008;2023-04-16T05:41:42;6.50;99.90
35962;DHT22;22044;48.298;10.008;2023-04-16T05:44:27;6.60;99.90
35962;DHT22;22044;48.298;10.008;2023-04-16T05:47:13;6.60;99.90
35962;DHT22;22044;48.298;10.008;2023-04-16T05:50:00;6.60;99.90
35962;DHT22;22044;48.298;10.008;2023-04-16T05:52:46;6.60;99.90
35962;DHT22;22044;48.298;10.008;2023-04-16T05:55:31;6.60;99.90
35962;DHT22;22044;48.298;10.008;2023-04-16T05:58:17;6.60;99.90
35962;DHT22;22044;48.298;10.008;2023-04-16T06:01:03;6.60;99.90
35962;DHT22;22044;48.298;10.008;2023-04-16T06:03:48;6.60;99.90
35962;DHT22;22044;48.298;10.008;2023-04-16T06:06:36;6.60;99.90
35962;DHT22;22044;48.298;10.008;2023-04-16T06:09:21;6.60;99.90
35962;DHT22;22044;48.298;10.008;2023-04-16T06:12:08;6.60;99.90
35962;DHT22;22044;48.298;10.008;2023-04-16T06:14:54;6.60;99.90
35962;DHT22;22044;48.298;10.008;2023-04-16T06:17:40;6.70;99.90
35962;DHT22;22044;48.298;10.008;2023-04-16T06:20:26;6.60;99.90
35962;DHT22;22044;48.298;10.008;2023-04-16T06:23:13;6.60;99.90
35962;DHT22;22044;48.298;10.008;2023-04-16T06:25:59;6.70;99.90
35962;DHT22;22044;48.298;10.008;2023-04-16T06:28:44;6.70;99.90
35962;DHT22;22044;48.298;10.008;2023-04-16T06:31:30;6.70;99.90
35962;DHT22;22044;48.298;10.008;2023-04-16T06:34:16;6.70;99.90
35962;DHT22;22044;48.298;10.008;2023-04-16T06:37:01;6.60;99.90
35962;DHT22;22044;48.298;10.008;2023-04-16T06:39:48;6.70;99.90
35962;DHT22;22044;48.298;10.008;2023-04-16T06:42:34;6.80;99.90
35962;DHT22;22044;48.298;10.008;2023-04-16T06:45:21;6.80;99.90
35962;DHT22;22044;48.298;10.008;2023-04-16T06:48:09;6.80;99.90
35962;DHT22;22044;48.298;10.008;2023-04-16T06:50:54;6.80;99.90
35962;DHT22;22044;48.298;10.008;2023-04-16T06:53:40;6.80;99.90
35962;DHT22;22044;48.298;10.008;2023-04-16T06:56:28;6.80;99.90
35962;DHT22;22044;48.298;10.008;2023-04-16T06:59:13;6.80;99.90
35962;DHT22;22044;48.298;10.008;2023-04-16T07:01:59;6.90;99.90
35962;DHT22;22044;48.298;10.008;2023-04-16T07:04:45;7.00;99.90
35962;DHT22;22044;48.298;10.008;2023-04-16T07:07:31;6.90;99.90
35962;DHT22;22044;48.298;10.008;2023-04-16T07:10:17;6.90;99.90
35962;DHT22;22044;48.298;10.008;2023-04-16T07:13:04;6.90;99.90
35962;DHT22;22044;48.298;10.008;2023-04-16T07:15:50;7.00;99.90
35962;DHT22;22044;48.298;10.008;2023-04-16T07:18:35;7.00;99.90
35962;DHT22;22044;48.298;10.008;2023-04-16T07:21:21;7.00;99.90
35962;DHT22;22044;48.298;10.008;2023-04-16T07:24:07;7.00;99.90
35962;DHT22;22044;48.298;10.008;2023-04-16T07:26:52;7.00;99.90
35962;DHT22;22044;48.298;10.008;2023-04-16T07:29:39;7.10;99.90
35962;DHT22;22044;48.298;10.008;2023-04-16T07:32:25;7.10;99.90
35962;DHT22;22044;48.298;10.008;2023-04-16T07:35:10;7.10;99.90
35962;DHT22;22044;48.298;10.008;2023-04-16T07:37:57;7.20;99.90
35962;DHT22;22044;48.298;10.008;2023-04-16T07:40:43;7.20;99.90
35962;DHT22;22044;48.298;10.008;2023-04-16T07:43:29;7.10;99.90
35962;DHT22;22044;48.298;10.008;2023-04-16T07:46:16;7.20;99.90
35962;DHT22;22044;48.298;10.008;2023-04-16T07:49:02;7.30;99.90
35962;DHT22;22044;48.298;10.008;2023-04-16T07:51:47;7.40;99.90
35962;DHT22;22044;48.298;10.008;2023-04-16T07:54:33;7.30;99.90
35962;DHT22;22044;48.298;10.008;2023-04-16T07:57:19;7.40;99.90
35962;DHT22;22044;48.298;10.008;2023-04-16T08:00:05;7.40;99.90
35962;DHT22;22044;48.298;10.008;2023-04-16T08:02:58;7.40;99.90
35962;DHT22;22044;48.298;10.008;2023-04-16T08:05:44;7.40;99.90
35962;DHT22;22044;48.298;10.008;2023-04-16T08:08:29;7.50;99.90
35962;DHT22;22044;48.298;10.008;2023-04-16T08:11:15;7.60;99.90
35962;DHT22;22044;48.298;10.008;2023-04-16T08:14:00;7.60;99.90
35962;DHT22;22044;48.298;10.008;2023-04-16T08:16:46;7.70;99.90
35962;DHT22;22044;48.298;10.008;2023-04-16T08:19:33;7.70;99.90
35962;DHT22;22044;48.298;10.008;2023-04-16T08:22:19;7.60;99.90
35962;DHT22;22044;48.298;10.008;2023-04-16T08:25:06;7.70;99.90
35962;DHT22;22044;48.298;10.008;2023-04-16T08:27:52;7.80;99.90
35962;DHT22;22044;48.298;10.008;2023-04-16T08:30:39;7.80;99.90
35962;DHT22;22044;48.298;10.008;2023-04-16T08:33:25;7.80;99.90
35962;DHT22;22044;48.298;10.008;2023-04-16T08:36:12;7.80;99.90
35962;DHT22;22044;48.298;10.008;2023-04-16T08:38:57;7.80;99.90
35962;DHT22;22044;48.298;10.008;2023-04-16T08:41:45;7.80;99.90
35962;DHT22;22044;48.298;10.008;2023-04-16T08:44:33;7.70;99.90
35962;DHT22;22044;48.298;10.008;2023-04-16T08:47:18;7.80;99.90
35962;DHT22;22044;48.298;10.008;2023-04-16T08:50:08;7.80;99.90
35962;DHT22;22044;48.298;10.008;2023-04-16T08:52:57;7.80;99.90
35962;DHT22;22044;48.298;10.008;2023-04-16T08:55:46;7.90;99.90
35962;DHT22;22044;48.298;10.008;2023-04-16T08:58:32;7.90;99.90
35962;DHT22;22044;48.298;10.008;2023-04-16T09:01:18;8.00;99.90
35962;DHT22;22044;48.298;10.008;2023-04-16T09:04:05;7.90;99.90
35962;DHT22;22044;48.298;10.008;2023-04-16T09:06:51;7.90;99.90
35962;DHT22;22044;48.298;10.008;2023-04-16T09:09:40;7.80;99.90
35962;DHT22;22044;48.298;10.008;2023-04-16T09:12:26;7.90;99.90
35962;DHT22;22044;48.298;10.008;2023-04-16T09:15:13;7.80;99.90
35962;DHT22;22044;48.298;10.008;2023-04-16T09:17:58;8.00;99.90
35962;DHT22;22044;48.298;10.008;2023-04-16T09:20:44;7.90;99.90
35962;DHT22;22044;48.298;10.008;2023-04-16T09:23:30;7.90;99.90
35962;DHT22;22044;48.298;10.008;2023-04-16T09:26:17;8.00;99.90
35962;DHT22;22044;48.298;10.008;2023-04-16T09:29:04;8.10;99.90
35962;DHT22;22044;48.298;10.008;2023-04-16T09:32:00;8.10;99.90
35962;DHT22;22044;48.298;10.008;2023-04-16T09:34:54;8.20;99.90
35962;DHT22;22044;48.298;10.008;2023-04-16T09:37:40;8.10;99.90
35962;DHT22;22044;48.298;10.008;2023-04-16T09:40:26;8.10;99.90
35962;DHT22;22044;48.298;10.008;2023-04-16T09:43:16;8.10;99.90
35962;DHT22;22044;48.298;10.008;2023-04-16T09:46:03;8.20;99.90
35962;DHT22;22044;48.298;10.008;2023-04-16T09:48:48;8.20;99.90
35962;DHT22;22044;48.298;10.008;2023-04-16T09:51:36;8.30;99.90
35962;DHT22;22044;48.298;10.008;2023-04-16T09:54:25;8.30;99.90
35962;DHT22;22044;48.298;10.008;2023-04-16T09:57:10;8.20;99.90
35962;DHT22;22044;48.298;10.008;2023-04-16T10:00:03;8.30;99.90
35962;DHT22;22044;48.298;10.008;2023-04-16T10:03:02;8.40;99.90
35962;DHT22;22044;48.298;10.008;2023-04-16T10:05:48;8.30;99.90
35962;DHT22;22044;48.298;10.008;2023-04-16T10:08:33;8.30;99.90
35962;DHT22;22044;48.298;10.008;2023-04-16T10:11:20;8.30;99.90
35962;DHT22;22044;48.298;10.008;2023-04-16T10:14:05;8.30;99.90
35962;DHT22;22044;48.298;10.008;2023-04-16T10:16:53;8.30;99.90
35962;DHT22;22044;48.298;10.008;2023-04-16T10:19:39;8.40;99.90
35962;DHT22;22044;48.298;10.008;2023-04-16T10:22:25;8.40;99.90
35962;DHT22;22044;48.298;10.008;2023-04-16T10:25:11;8.30;99.90
35962;DHT22;22044;48.298;10.008;2023-04-16T10:27:57;8.20;99.90
35962;DHT22;22044;48.298;10.008;2023-04-16T10:30:46;8.20;99.90
35962;DHT22;22044;48.298;10.008;2023-04-16T10:33:39;8.10;99.90
35962;DHT22;22044;48.298;10.008;2023-04-16T10:36:25;8.10;99.90
35962;DHT22;22044;48.298;10.008;2023-04-16T10:39:11;8.10;99.90
35962;DHT22;22044;48.298;10.008;2023-04-16T10:42:08;8.10;99.90
35962;DHT22;22044;48.298;10.008;2023-04-16T10:44:53;8.00;99.90
35962;DHT22;22044;48.298;10.008;2023-04-16T10:47:43;8.00;99.90
35962;DHT22;22044;48.298;10.008;2023-04-16T10:50:34;8.10;99.90
35962;DHT22;22044;48.298;10.008;2023-04-16T10:53:23;8.10;99.90
35962;DHT22;22044;48.298;10.008;2023-04-16T10:56:12;8.30;99.90
35962;DHT22;22044;48.298;10.008;2023-04-16T10:58:58;8.30;99.90
35962;DHT22;22044;48.298;10.008;2023-04-16T11:01:45;8.20;99.90
35962;DHT22;22044;48.298;10.008;2023-04-16T11:04:35;8.30;99.90
35962;DHT22;22044;48.298;10.008;2023-04-16T11:07:33;8.30;99.90
35962;DHT22;22044;48.298;10.008;2023-04-16T11:10:19;8.40;99.90
35962;DHT22;22044;48.298;10.008;2023-04-16T11:13:05;8.30;99.90
35962;DHT22;22044;48.298;10.008;2023-04-16T11:15:56;8.30;99.90
35962;DHT22;22044;48.298;10.008;2023-04-16T11:18:44;8.30;99.90
35962;DHT22;22044;48.298;10.008;2023-04-16T11:21:30;8.20;99.90
35962;DHT22;22044;48.298;10.008;2023-04-16T11:24:17;8.30;99.90
35962;DHT22;22044;48.298;10.008;2023-04-16T11:27:03;8.30;99.90
35962;DHT22;22044;48.298;10.008;2023-04-16T11:29:56;8.30;99.90
35962;DHT22;22044;48.298;10.008;2023-04-16T11:32:43;8.30;99.90
35962;DHT22;22044;48.298;10.008;2023-04-16T11:35:28;8.30;99.90
35962;DHT22;22044;48.298;10.008;2023-04-16T11:38:17;8.30;99.90
35962;DHT22;22044;48.298;10.008;2023-04-16T11:41:04;8.30;99.90
35962;DHT22;22044;48.298;10.008;2023-04-16T11:43:49;8.10;99.90
35962;DHT22;22044;48.298;10.008;2023-04-16T11:46:38;8.20;99.90
35962;DHT22;22044;48.298;10.008;2023-04-16T11:49:27;8.20;99.90
35962;DHT22;22044;48.298;10.008;2023-04-16T11:52:14;8.20;99.90
35962;DHT22;22044;48.298;10.008;2023-04-16T11:55:08;8.30;99.90
35962;DHT22;22044;48.298;10.008;2023-04-16T11:57:55;8.30;99.90
35962;DHT22;22044;48.298;10.008;2023-04-16T12:00:41;8.30;99.90
35962;DHT22;22044;48.298;10.008;2023-04-16T12:03:37;8.20;99.90
35962;DHT22;22044;48.298;10.008;2023-04-16T12:06:23;8.30;99.90
35962;DHT22;22044;48.298;10.008;2023-04-16T12:09:22;8.30;99.90
35962;DHT22;22044;48.298;10.008;2023-04-16T12:12:26;8.20;99.90
35962;DHT22;22044;48.298;10.008;2023-04-16T12:15:15;8.20;99.90
35962;DHT22;22044;48.298;10.008;2023-04-16T12:18:06;8.20;99.90
35962;DHT22;22044;48.298;10.008;2023-04-16T12:20:52;8.20;99.90
35962;DHT22;22044;48.298;10.008;2023-04-16T12:23:38;8.20;99.90
35962;DHT22;22044;48.298;10.008;2023-04-16T12:26:24;8.20;99.90
35962;DHT22;22044;48.298;10.008;2023-04-16T12:29:18;8.20;99.90
35962;DHT22;22044;48.298;10.008;2023-04-16T12:32:20;8.10;99.90
35962;DHT22;22044;48.298;10.008;2023-04-16T12:35:06;8.20;99.90
35962;DHT22;22044;48.298;10.008;2023-04-16T12:37:52;8.20;99.90
35962;DHT22;22044;48.298;10.008;2023-04-16T12:40:37;8.20;99.90
35962;DHT22;22044;48.298;10.008;2023-04-16T12:43:23;8.20;99.90
35962;DHT22;22044;48.298;10.008;2023-04-16T12:46:09;8.20;99.90
35962;DHT22;22044;48.298;10.008;2023-04-16T12:48:56;8.10;99.90
35962;DHT22;22044;48.298;10.008;2023-04-16T12:51:41;8.20;99.90
35962;DHT22;22044;48.298;10.008;2023-04-16T12:54:27;8.20;99.90
35962;DHT22;22044;48.298;10.008;2023-04-16T12:57:14;8.20;99.90
35962;DHT22;22044;48.298;10.008;2023-04-16T12:59:59;8.20;99.90
35962;DHT22;22044;48.298;10.008;2023-04-16T13:02:45;8.20;99.90
35962;DHT22;22044;48.298;10.008;2023-04-16T13:05:32;8.20;99.90
35962;DHT22;22044;48.298;10.008;2023-04-16T13:08:18;8.20;99.90
35962;DHT22;22044;48.298;10.008;2023-04-16T13:11:03;8.10;99.90
35962;DHT22;22044;48.298;10.008;2023-04-16T13:13:49;8.10;99.90
35962;DHT22;22044;48.298;10.008;2023-04-16T13:16:35;8.10;99.90
35962;DHT22;22044;48.298;10.008;2023-04-16T13:19:21;8.20;99.90
35962;DHT22;22044;48.298;10.008;2023-04-16T13:22:08;8.20;99.90
35962;DHT22;22044;48.298;10.008;2023-04-16T13:24:54;8.20;99.90
35962;DHT22;22044;48.298;10.008;2023-04-16T13:27:40;8.30;99.90
35962;DHT22;22044;48.298;10.008;2023-04-16T13:30:26;8.20;99.90
35962;DHT22;22044;48.298;10.008;2023-04-16T13:33:12;8.20;99.90
35962;DHT22;22044;48.298;10.008;2023-04-16T13:35:58;8.10;99.90
35962;DHT22;22044;48.298;10.008;2023-04-16T13:38:45;8.20;99.90
35962;DHT22;22044;48.298;10.008;2023-04-16T13:41:30;8.20;99.90
35962;DHT22;22044;48.298;10.008;2023-04-16T13:44:16;8.20;99.90
35962;DHT22;22044;48.298;10.008;2023-04-16T13:47:02;8.30;99.90
35962;DHT22;22044;48.298;10.008;2023-04-16T13:49:48;8.30;99.90
35962;DHT22;22044;48.298;10.008;2023-04-16T13:52:33;8.30;99.90
35962;DHT22;22044;48.298;10.008;2023-04-16T13:55:21;8.40;99.90
35962;DHT22;22044;48.298;10.008;2023-04-16T13:58:07;8.40;99.90
35962;DHT22;22044;48.298;10.008;2023-04-16T14:00:52;8.30;99.90
35962;DHT22;22044;48.298;10.008;2023-04-16T14:03:38;8.30;99.90
35962;DHT22;22044;48.298;10.008;2023-04-16T14:06:25;8.40;99.90
35962;DHT22;22044;48.298;10.008;2023-04-16T14:09:11;8.40;99.90
35962;DHT22;22044;48.298;10.008;2023-04-16T14:11:58;8.40;99.90
35962;DHT22;22044;48.298;10.008;2023-04-16T14:14:44;8.30;99.90
35962;DHT22;22044;48.298;10.008;2023-04-16T14:17:30;8.30;99.90
35962;DHT22;22044;48.298;10.008;2023-04-16T14:20:16;8.40;99.90
35962;DHT22;22044;48.298;10.008;2023-04-16T14:23:01;8.40;99.90
35962;DHT22;22044;48.298;10.008;2023-04-16T14:25:47;8.40;99.90
35962;DHT22;22044;48.298;10.008;2023-04-16T14:28:35;8.40;99.90
35962;DHT22;22044;48.298;10.008;2023-04-16T14:31:22;8.40;99.90
35962;DHT22;22044;48.298;10.008;2023-04-16T14:34:08;8.40;99.90
35962;DHT22;22044;48.298;10.008;2023-04-16T14:36:54;8.40;99.90
35962;DHT22;22044;48.298;10.008;2023-04-16T14:39:39;8.40;99.90
35962;DHT22;22044;48.298;10.008;2023-04-16T14:42:25;8.50;99.90
35962;DHT22;22044;48.298;10.008;2023-04-16T14:45:12;8.50;99.90
35962;DHT22;22044;48.298;10.008;2023-04-16T14:47:59;8.50;99.90
35962;DHT22;22044;48.298;10.008;2023-04-16T14:50:44;8.50;99.90
35962;DHT22;22044;48.298;10.008;2023-04-16T14:53:30;8.40;99.90
35962;DHT22;22044;48.298;10.008;2023-04-16T14:56:17;8.50;99.90
35962;DHT22;22044;48.298;10.008;2023-04-16T14:59:03;8.50;99.90
35962;DHT22;22044;48.298;10.008;2023-04-16T15:01:51;8.50;99.90
35962;DHT22;22044;48.298;10.008;2023-04-16T15:04:37;8.40;99.90
35962;DHT22;22044;48.298;10.008;2023-04-16T15:07:23;8.30;99.90
35962;DHT22;22044;48.298;10.008;2023-04-16T15:10:09;8.30;99.90
35962;DHT22;22044;48.298;10.008;2023-04-16T15:12:56;8.30;99.90
35962;DHT22;22044;48.298;10.008;2023-04-16T15:15:42;8.30;99.90
35962;DHT22;22044;48.298;10.008;2023-04-16T15:18:29;8.30;99.90
35962;DHT22;22044;48.298;10.008;2023-04-16T15:21:15;8.40;99.90
35962;DHT22;22044;48.298;10.008;2023-04-16T15:24:00;8.40;99.90
35962;DHT22;22044;48.298;10.008;2023-04-16T15:26:46;8.40;99.90
35962;DHT22;22044;48.298;10.008;2023-04-16T15:29:32;8.40;99.90
35962;DHT22;22044;48.298;10.008;2023-04-16T15:32:17;8.50;99.90
35962;DHT22;22044;48.298;10.008;2023-04-16T15:35:05;8.30;99.90
35962;DHT22;22044;48.298;10.008;2023-04-16T15:37:51;8.30;99.90
35962;DHT22;22044;48.298;10.008;2023-04-16T15:40:37;8.30;99.90
35962;DHT22;22044;48.298;10.008;2023-04-16T15:43:25;8.30;99.90
35962;DHT22;22044;48.298;10.008;2023-04-16T15:46:12;8.20;99.90
35962;DHT22;22044;48.298;10.008;2023-04-16T15:48:58;8.10;99.90
35962;DHT22;22044;48.298;10.008;2023-04-16T15:51:45;8.20;99.90
35962;DHT22;22044;48.298;10.008;2023-04-16T15:54:30;8.20;99.90
35962;DHT22;22044;48.298;10.008;2023-04-16T15:57:16;8.10;99.90
35962;DHT22;22044;48.298;10.008;2023-04-16T16:00:02;8.20;99.90
35962;DHT22;22044;48.298;10.008;2023-04-16T16:02:56;8.20;99.90
35962;DHT22;22044;48.298;10.008;2023-04-16T16:05:42;8.20;99.90
35962;DHT22;22044;48.298;10.008;2023-04-16T16:08:29;8.20;99.90
35962;DHT22;22044;48.298;10.008;2023-04-16T16:11:17;8.20;99.90
35962;DHT22;22044;48.298;10.008;2023-04-16T16:14:03;8.10;99.90
35962;DHT22;22044;48.298;10.008;2023-04-16T16:16:50;8.10;99.90
35962;DHT22;22044;48.298;10.008;2023-04-16T16:19:35;8.10;99.90
35962;DHT22;22044;48.298;10.008;2023-04-16T16:22:21;8.00;99.90
35962;DHT22;22044;48.298;10.008;2023-04-16T16:25:09;8.10;99.90
35962;DHT22;22044;48.298;10.008;2023-04-16T16:27:54;8.10;99.90
35962;DHT22;22044;48.298;10.008;2023-04-16T16:30:40;8.20;99.90
35962;DHT22;22044;48.298;10.008;2023-04-16T16:33:26;8.20;99.90
35962;DHT22;22044;48.298;10.008;2023-04-16T16:36:12;8.10;99.90
35962;DHT22;22044;48.298;10.008;2023-04-16T16:38:58;8.10;99.90
35962;DHT22;22044;48.298;10.008;2023-04-16T16:41:44;8.10;99.90
35962;DHT22;22044;48.298;10.008;2023-04-16T16:44:35;8.10;99.90
35962;DHT22;22044;48.298;10.008;2023-04-16T16:47:21;8.20;99.90
35962;DHT22;22044;48.298;10.008;2023-04-16T16:50:08;8.20;99.90
35962;DHT22;22044;48.298;10.008;2023-04-16T16:52:54;8.20;99.90
35962;DHT22;22044;48.298;10.008;2023-04-16T16:55:41;8.20;99.90
35962;DHT22;22044;48.298;10.008;2023-04-16T16:58:28;8.10;99.90
35962;DHT22;22044;48.298;10.008;2023-04-16T17:01:14;8.10;99.90
35962;DHT22;22044;48.298;10.008;2023-04-16T17:04:00;8.00;99.90
35962;DHT22;22044;48.298;10.008;2023-04-16T17:06:45;8.00;99.90
35962;DHT22;22044;48.298;10.008;2023-04-16T17:09:31;8.00;99.90
35962;DHT22;22044;48.298;10.008;2023-04-16T17:12:17;8.00;99.90
35962;DHT22;22044;48.298;10.008;2023-04-16T17:15:04;8.00;99.90
35962;DHT22;22044;48.298;10.008;2023-04-16T17:17:50;7.90;99.90
35962;DHT22;22044;48.298;10.008;2023-04-16T17:20:36;8.00;99.90
35962;DHT22;22044;48.298;10.008;2023-04-16T17:23:21;8.00;99.90
35962;DHT22;22044;48.298;10.008;2023-04-16T17:26:07;7.90;99.90
35962;DHT22;22044;48.298;10.008;2023-04-16T17:28:54;7.90;99.90
35962;DHT22;22044;48.298;10.008;2023-04-16T17:31:42;7.90;99.90
35962;DHT22;22044;48.298;10.008;2023-04-16T17:34:27;7.90;99.90